Capitol Logistics 230


KRFD
Chicago/Rockford International Airport
Rockford, Illinois, US
KPHX
Phoenix Sky Harbor International Airport
Phoenix, Arizona, US

Activity Log

Date Flight Route Aircraft Duration
06/09/2019 CPX230 DBQ J144 DSM OVR GLD/N0456F380 ALS GUP EAGUL6 B763 3h 02m
04/14/2019 CPX230 DBQ J144 DSM OVR GLD ALS GUP EAGUL6 B763 3h 33m
03/14/2019 CPX230 DBQ J144 DSM OVR GLD ALS GUP EAGUL6 B763 3h 25m
02/25/2019 CPX230 DBQ J144 DSM OVR GLD ALS GUP EAGUL6 B763 3h 25m

Route Details

Aircraft Information
Primary: Boeing 767-300BDSF
Backup: Not Available
Route Data
Distance: 1204nm
Sched. Duration: 3h 14m
Avg. Duration: 3h 21m (+7m)
Times Flown: 4
Recm'd Route: DBQ J144 DSM OVR GLD ALS GUP EAGUL6
Planned Altitude: 34,000ft
Origin Wx: KRFD 210754Z VRB03KT 10SM CLR M13/M18 A3064 RMK AO2 SLP393 T11331183
Dest. Wx: KPHX 210751Z 08005KT 10SM FEW170 BKN190 BKN240 19/03 A3006 RMK AO2 SLP165 T01890028
Notes:

Financial History
Total Freight: 250,239lbs
Average Load: 62,560lbs/flt
Fuel Used: 124,540lbs
Avg. Fuel Used: 31,135lbs/flt
Fuel Expense: $88,106
Avg. Fuel Expense: $22,026
Avg. Fuel Cost: $0.71/lbs
Total Gross Income: $340,325
Pilot Pay: $676
Total Expenses: $36,963
Total Revenue: $212,845
Average Revenue: $85,081.26